Rotterdam Express — DMRX — position and weather

sailwx.info

Track history (hours):
 
Tides and Currents Weather Stations Pressure Air Temp Water Temp Dewpoint Dewpoint Depression Visibility Wind Speed Wind Dir Waves Ship Positions

Rotterdam Express

Last reported at 2015-Sep-05 07:33 UTC. Time now 2015-Sep-05 10:17 UTC.
Position N 38°43' W 123°44'.

Length 294 m; beam 32.2 m; draft 13.6 m.

Type: Ship. MMSI: 211335760.

Date/timePositionNaut miles runAvg speedWind from/ knotsBaromVisibWave heightAir tempDewpointWater temp
2015-Sep-05 07:33N 38°43' W 123°44'1613.8
2015-Sep-05 06:26N 38°29' W 123°34'1213.4
2015-Sep-05 05:33N 38°19' W 123°27'1413.7
2015-Sep-05 04:33N 38°07' W 123°18'1413.8
2015-Sep-05 03:33N 37°57' W 123°06'1413.8
2015-Sep-05 02:33N 37°51' W 122°51'1111.1
2015-Sep-05 01:34N 37°46' W 122°38'1212.3
2015-Sep-05 00:33N 37°49' W 122°23'3 2.9
2015-Sep-04 23:33N 37°49' W 122°19'0 0.0
2015-Sep-04 22:33N 37°49' W 122°19'0 0.0
2015-Sep-04 21:30N 37°49' W 122°19'0 0.0
2015-Sep-04 20:33N 37°49' W 122°19'0 0.0
2015-Sep-04 19:33N 37°49' W 122°19'0 0.0
2015-Sep-04 18:33N 37°49' W 122°19'0 0.0
2015-Sep-04 17:33N 37°49' W 122°19'0 0.0
2015-Sep-04 16:33N 37°49' W 122°19'0 0.0
2015-Sep-04 15:33N 37°49' W 122°19'0 0.0
2015-Sep-04 14:33N 37°49' W 122°19'0 0.0
2015-Sep-04 13:33N 37°49' W 122°19'0 0.0
2015-Sep-04 12:33N 37°49' W 122°19'0 0.0
2015-Sep-04 11:33N 37°49' W 122°19'0 0.0
2015-Sep-04 10:33N 37°49' W 122°19'0 0.0
2015-Sep-04 09:33N 37°49' W 122°19'0 0.0
2015-Sep-04 08:33N 37°49' W 122°19'0 0.0
2015-Sep-04 07:33N 37°49' W 122°19'0 0.0
2015-Sep-04 06:30N 37°49' W 122°19'0 0.0
2015-Sep-04 05:33N 37°49' W 122°19'0 0.0
2015-Sep-04 04:33N 37°49' W 122°19'0 0.0
2015-Sep-04 03:33N 37°49' W 122°19'0 0.0
2015-Sep-04 02:33N 37°49' W 122°19'0 0.0
2015-Sep-04 01:30N 37°49' W 122°19'0 0.0
2015-Sep-04 00:33N 37°49' W 122°19'0 0.0
2015-Sep-03 23:33N 37°49' W 122°19'0 0.0
2015-Sep-03 22:33N 37°49' W 122°19'0 0.0
2015-Sep-03 21:32N 37°49' W 122°19'0 0.0
2015-Sep-03 20:31N 37°49' W 122°19'0 0.0
2015-Sep-03 19:31N 37°49' W 122°19'0 0.0
2015-Sep-03 18:33N 37°49' W 122°19'0 0.0
2015-Sep-03 17:33N 37°49' W 122°19'0 0.0
2015-Sep-03 16:31N 37°49' W 122°19'0 0.0
2015-Sep-03 15:32N 37°49' W 122°19'0 0.0
2015-Sep-03 14:32N 37°49' W 122°19'0 0.0
2015-Sep-03 13:30N 37°49' W 122°19'2 2.0
2015-Sep-03 12:33N 37°48' W 122°21'1313.2
2015-Sep-03 11:33N 37°46' W 122°38'8 8.0
2015-Sep-03 10:33N 37°38' W 122°40'6 6.4
2015-Sep-03 09:33N 37°32' W 122°40'6 6.5
2015-Sep-03 08:33N 37°25' W 122°40'6 6.3
2015-Sep-03 07:33N 37°19' W 122°41'6 6.5
2015-Sep-03 06:33N 37°14' W 122°47'1 1.5
2015-Sep-03 05:33N 37°13' W 122°48'0 0.3
2015-Sep-03 04:33N 37°13' W 122°47'0 0.2
2015-Sep-03 03:33N 37°13' W 122°47'0 0.3
2015-Sep-03 02:31N 37°14' W 122°47'1 0.6
2015-Sep-03 01:33N 37°14' W 122°48'1 0.9
2015-Sep-03 00:29N 37°15' W 122°48'1 0.8
2015-Sep-02 23:33N 37°15' W 122°49'1 0.3
2015-Sep-02 21:04N 37°16' W 122°50'0 0.4
2015-Sep-02 20:14N 37°16' W 122°50'1 0.8
2015-Sep-02 19:31N 37°17' W 122°51'1 0.9
2015-Sep-02 18:33N 37°17' W 122°52'1 1.2
2015-Sep-02 17:33N 37°16' W 122°53'1 1.1
2015-Sep-02 16:33N 37°16' W 122°54'1 1.0
2015-Sep-02 15:25N 37°16' W 122°56'1 0.9
2015-Sep-02 14:30N 37°16' W 122°57'14 7.0
2015-Sep-02 12:33N 37°15' W 122°40'17014.1
2015-Sep-02 00:32N 34°43' W 121°07'3514.1
2015-Sep-01 22:05N 34°22' W 120°33'5515.2
2015-Sep-01 18:29N 34°08' W 119°29'1615.3
2015-Sep-01 17:25N 34°02' W 119°10'1315.5
2015-Sep-01 16:33N 33°56' W 118°56'1515.2
2015-Sep-01 15:33N 33°48' W 118°40'1211.3
2015-Sep-01 14:31N 33°42' W 118°28'1010.3
2015-Sep-01 13:32N 33°39' W 118°17'5 5.4
2015-Sep-01 12:33N 33°44' W 118°15'1 0.6
2015-Sep-01 11:32N 33°44' W 118°15'0 0.0
2015-Sep-01 10:32N 33°44' W 118°15'0 0.0
2015-Sep-01 09:32N 33°44' W 118°15'0 0.0
2015-Sep-01 08:32N 33°44' W 118°15'0 0.0
2015-Sep-01 07:32N 33°44' W 118°15'0 0.0
2015-Sep-01 06:32N 33°44' W 118°15'0 0.1
2015-Sep-01 05:32N 33°44' W 118°15'0 0.0
2015-Sep-01 03:28N 33°44' W 118°15'0 0.0
2015-Sep-01 02:32N 33°44' W 118°15'0 0.0
2015-Sep-01 01:24N 33°44' W 118°15'0 0.0
2015-Sep-01 00:32N 33°44' W 118°15'0 0.0
2015-Aug-31 23:30N 33°44' W 118°15'0 0.0
2015-Aug-31 22:33N 33°44' W 118°15'0 0.1
2015-Aug-31 21:33N 33°44' W 118°15'0 0.0
2015-Aug-31 20:31N 33°44' W 118°15'0 0.0
2015-Aug-31 19:28N 33°44' W 118°15'0 0.0
2015-Aug-31 18:31N 33°44' W 118°15'0 0.0
2015-Aug-31 17:32N 33°44' W 118°15'0 0.1
2015-Aug-31 16:32N 33°44' W 118°15'0 0.0
2015-Aug-31 15:32N 33°44' W 118°15'0 0.0
2015-Aug-31 14:33N 33°44' W 118°15'2 2.1
2015-Aug-31 13:28N 33°42' W 118°13'0 0.0
2015-Aug-31 12:33N 33°42' W 118°13'0 0.1
2015-Aug-31 11:33N 33°42' W 118°13'5 4.8
2015-Aug-31 10:33N 33°38' W 118°11'6 6.2
2015-Aug-31 09:33N 33°32' W 118°08'5 4.9
2015-Aug-31 08:29N 33°27' W 118°06'8 6.5
2015-Aug-31 07:18N 33°20' W 118°03'5 6.8
2015-Aug-31 06:33N 33°15' W 118°01'7 6.9
2015-Aug-31 05:33N 33°08' W 117°58'7 6.9
2015-Aug-31 04:33N 33°02' W 117°55'8 6.5
2015-Aug-31 03:22N 32°54' W 117°52'6 6.9
2015-Aug-31 02:33N 32°49' W 117°50'7 7.4
2015-Aug-31 01:33N 32°42' W 117°47'1212.3
2015-Aug-31 00:33N 32°31' W 117°43'1212.2
2015-Aug-30 23:33N 32°19' W 117°38'1212.5
2015-Aug-30 22:33N 32°07' W 117°33'1312.5
2015-Aug-30 21:32N 31°55' W 117°28'1212.0
2015-Aug-30 20:33N 31°44' W 117°23'1212.2
2015-Aug-30 19:33N 31°33' W 117°19'1212.3
2015-Aug-30 18:33N 31°21' W 117°14'1120.0
2015-Aug-30 18:00N 31°12' W 117°06'5 8.9 310 / 191014.310.8 1.523.518.023.0
2015-Aug-30 17:29N 31°08' W 117°09'2812.0
2015-Aug-30 15:08N 30°41' W 116°58'1213.3
2015-Aug-30 14:14N 30°30' W 116°54'1014.7
2015-Aug-30 13:33N 30°21' W 116°50'1515.1
2015-Aug-30 12:33N 30°06' W 116°44'1515.1
2015-Aug-30 11:33N 29°52' W 116°39'3615.4
2015-Aug-30 09:13N 29°18' W 116°25'4616.1
2015-Aug-30 06:20N 28°34' W 116°08'1316.1
2015-Aug-30 05:32N 28°22' W 116°03'  
Track history (hours):
 
Tides and Currents Weather Stations Pressure Air Temp Water Temp Dewpoint Dewpoint Depression Visibility Wind Speed Wind Dir Waves Ship Positions

Rotterdam Express

Last reported at 2015-Sep-05 07:33 UTC. Time now 2015-Sep-05 10:17 UTC.
Position N 38°43' W 123°44'.

Length 294 m; beam 32.2 m; draft 13.6 m.

Type: Ship. MMSI: 211335760.

Date/timePositionNaut miles runAvg speedWind from/ knotsBaromVisibWave heightAir tempDewpointWater temp
2015-Sep-05 07:33N 38°43' W 123°44'1613.8
2015-Sep-05 06:26N 38°29' W 123°34'1213.4
2015-Sep-05 05:33N 38°19' W 123°27'1413.7
2015-Sep-05 04:33N 38°07' W 123°18'1413.8
2015-Sep-05 03:33N 37°57' W 123°06'1413.8
2015-Sep-05 02:33N 37°51' W 122°51'1111.1
2015-Sep-05 01:34N 37°46' W 122°38'1212.3
2015-Sep-05 00:33N 37°49' W 122°23'3 2.9
2015-Sep-04 23:33N 37°49' W 122°19'0 0.0
2015-Sep-04 22:33N 37°49' W 122°19'0 0.0
2015-Sep-04 21:30N 37°49' W 122°19'0 0.0
2015-Sep-04 20:33N 37°49' W 122°19'0 0.0
2015-Sep-04 19:33N 37°49' W 122°19'0 0.0
2015-Sep-04 18:33N 37°49' W 122°19'0 0.0
2015-Sep-04 17:33N 37°49' W 122°19'0 0.0
2015-Sep-04 16:33N 37°49' W 122°19'0 0.0
2015-Sep-04 15:33N 37°49' W 122°19'0 0.0
2015-Sep-04 14:33N 37°49' W 122°19'0 0.0
2015-Sep-04 13:33N 37°49' W 122°19'0 0.0
2015-Sep-04 12:33N 37°49' W 122°19'0 0.0
2015-Sep-04 11:33N 37°49' W 122°19'0 0.0
2015-Sep-04 10:33N 37°49' W 122°19'0 0.0
2015-Sep-04 09:33N 37°49' W 122°19'0 0.0
2015-Sep-04 08:33N 37°49' W 122°19'0 0.0
2015-Sep-04 07:33N 37°49' W 122°19'0 0.0
2015-Sep-04 06:30N 37°49' W 122°19'0 0.0
2015-Sep-04 05:33N 37°49' W 122°19'0 0.0
2015-Sep-04 04:33N 37°49' W 122°19'0 0.0
2015-Sep-04 03:33N 37°49' W 122°19'0 0.0
2015-Sep-04 02:33N 37°49' W 122°19'0 0.0
2015-Sep-04 01:30N 37°49' W 122°19'0 0.0
2015-Sep-04 00:33N 37°49' W 122°19'0 0.0
2015-Sep-03 23:33N 37°49' W 122°19'0 0.0
2015-Sep-03 22:33N 37°49' W 122°19'0 0.0
2015-Sep-03 21:32N 37°49' W 122°19'0 0.0
2015-Sep-03 20:31N 37°49' W 122°19'0 0.0
2015-Sep-03 19:31N 37°49' W 122°19'0 0.0
2015-Sep-03 18:33N 37°49' W 122°19'0 0.0
2015-Sep-03 17:33N 37°49' W 122°19'0 0.0
2015-Sep-03 16:31N 37°49' W 122°19'0 0.0
2015-Sep-03 15:32N 37°49' W 122°19'0 0.0
2015-Sep-03 14:32N 37°49' W 122°19'0 0.0
2015-Sep-03 13:30N 37°49' W 122°19'2 2.0
2015-Sep-03 12:33N 37°48' W 122°21'1313.2
2015-Sep-03 11:33N 37°46' W 122°38'8 8.0
2015-Sep-03 10:33N 37°38' W 122°40'6 6.4
2015-Sep-03 09:33N 37°32' W 122°40'6 6.5
2015-Sep-03 08:33N 37°25' W 122°40'6 6.3
2015-Sep-03 07:33N 37°19' W 122°41'6 6.5
2015-Sep-03 06:33N 37°14' W 122°47'1 1.5
2015-Sep-03 05:33N 37°13' W 122°48'0 0.3
2015-Sep-03 04:33N 37°13' W 122°47'0 0.2
2015-Sep-03 03:33N 37°13' W 122°47'0 0.3
2015-Sep-03 02:31N 37°14' W 122°47'1 0.6
2015-Sep-03 01:33N 37°14' W 122°48'1 0.9
2015-Sep-03 00:29N 37°15' W 122°48'1 0.8
2015-Sep-02 23:33N 37°15' W 122°49'1 0.3
2015-Sep-02 21:04N 37°16' W 122°50'0 0.4
2015-Sep-02 20:14N 37°16' W 122°50'1 0.8
2015-Sep-02 19:31N 37°17' W 122°51'1 0.9
2015-Sep-02 18:33N 37°17' W 122°52'1 1.2
2015-Sep-02 17:33N 37°16' W 122°53'1 1.1
2015-Sep-02 16:33N 37°16' W 122°54'1 1.0
2015-Sep-02 15:25N 37°16' W 122°56'1 0.9
2015-Sep-02 14:30N 37°16' W 122°57'14 7.0
2015-Sep-02 12:33N 37°15' W 122°40'17014.1
2015-Sep-02 00:32N 34°43' W 121°07'3514.1
2015-Sep-01 22:05N 34°22' W 120°33'5515.2
2015-Sep-01 18:29N 34°08' W 119°29'1615.3
2015-Sep-01 17:25N 34°02' W 119°10'1315.5
2015-Sep-01 16:33N 33°56' W 118°56'1515.2
2015-Sep-01 15:33N 33°48' W 118°40'1211.3
2015-Sep-01 14:31N 33°42' W 118°28'1010.3
2015-Sep-01 13:32N 33°39' W 118°17'5 5.4
2015-Sep-01 12:33N 33°44' W 118°15'1 0.6
2015-Sep-01 11:32N 33°44' W 118°15'0 0.0
2015-Sep-01 10:32N 33°44' W 118°15'0 0.0
2015-Sep-01 09:32N 33°44' W 118°15'0 0.0
2015-Sep-01 08:32N 33°44' W 118°15'0 0.0
2015-Sep-01 07:32N 33°44' W 118°15'0 0.0
2015-Sep-01 06:32N 33°44' W 118°15'0 0.1
2015-Sep-01 05:32N 33°44' W 118°15'0 0.0
2015-Sep-01 03:28N 33°44' W 118°15'0 0.0
2015-Sep-01 02:32N 33°44' W 118°15'0 0.0
2015-Sep-01 01:24N 33°44' W 118°15'0 0.0
2015-Sep-01 00:32N 33°44' W 118°15'0 0.0
2015-Aug-31 23:30N 33°44' W 118°15'0 0.0
2015-Aug-31 22:33N 33°44' W 118°15'0 0.1
2015-Aug-31 21:33N 33°44' W 118°15'0 0.0
2015-Aug-31 20:31N 33°44' W 118°15'0 0.0
2015-Aug-31 19:28N 33°44' W 118°15'0 0.0
2015-Aug-31 18:31N 33°44' W 118°15'0 0.0
2015-Aug-31 17:32N 33°44' W 118°15'0 0.1
2015-Aug-31 16:32N 33°44' W 118°15'0 0.0
2015-Aug-31 15:32N 33°44' W 118°15'0 0.0
2015-Aug-31 14:33N 33°44' W 118°15'2 2.1
2015-Aug-31 13:28N 33°42' W 118°13'0 0.0
2015-Aug-31 12:33N 33°42' W 118°13'0 0.1
2015-Aug-31 11:33N 33°42' W 118°13'5 4.8
2015-Aug-31 10:33N 33°38' W 118°11'6 6.2
2015-Aug-31 09:33N 33°32' W 118°08'5 4.9
2015-Aug-31 08:29N 33°27' W 118°06'8 6.5
2015-Aug-31 07:18N 33°20' W 118°03'5 6.8
2015-Aug-31 06:33N 33°15' W 118°01'7 6.9
2015-Aug-31 05:33N 33°08' W 117°58'7 6.9
2015-Aug-31 04:33N 33°02' W 117°55'8 6.5
2015-Aug-31 03:22N 32°54' W 117°52'6 6.9
2015-Aug-31 02:33N 32°49' W 117°50'7 7.4
2015-Aug-31 01:33N 32°42' W 117°47'1212.3
2015-Aug-31 00:33N 32°31' W 117°43'1212.2
2015-Aug-30 23:33N 32°19' W 117°38'1212.5
2015-Aug-30 22:33N 32°07' W 117°33'1312.5
2015-Aug-30 21:32N 31°55' W 117°28'1212.0
2015-Aug-30 20:33N 31°44' W 117°23'1212.2
2015-Aug-30 19:33N 31°33' W 117°19'1212.3
2015-Aug-30 18:33N 31°21' W 117°14'1120.0
2015-Aug-30 18:00N 31°12' W 117°06'5 8.9 310 / 191014.310.8 1.523.518.023.0
2015-Aug-30 17:29N 31°08' W 117°09'2812.0
2015-Aug-30 15:08N 30°41' W 116°58'1213.3
2015-Aug-30 14:14N 30°30' W 116°54'1014.7
2015-Aug-30 13:33N 30°21' W 116°50'1515.1
2015-Aug-30 12:33N 30°06' W 116°44'1515.1
2015-Aug-30 11:33N 29°52' W 116°39'3615.4
2015-Aug-30 09:13N 29°18' W 116°25'4616.1
2015-Aug-30 06:20N 28°34' W 116°08'1316.1
2015-Aug-30 05:32N 28°22' W 116°03'  

Dump ship's entire track history